sensor_id;sensor_type;location;lat;lon;timestamp;P1;durP1;ratioP1;P2;durP2;ratioP2
69594;SDS011;56800;52.142;5.364;2023-02-26T00:02:14;10.95;;;2.22;;
69594;SDS011;56800;52.142;5.364;2023-02-26T00:04:41;11.25;;;2.13;;
69594;SDS011;56800;52.142;5.364;2023-02-26T00:07:08;10.03;;;2.53;;
69594;SDS011;56800;52.142;5.364;2023-02-26T00:09:35;9.05;;;3.47;;
69594;SDS011;56800;52.142;5.364;2023-02-26T00:12:01;16.27;;;2.50;;
69594;SDS011;56800;52.142;5.364;2023-02-26T00:14:29;12.10;;;2.42;;
69594;SDS011;56800;52.142;5.364;2023-02-26T00:17:04;8.80;;;2.17;;
69594;SDS011;56800;52.142;5.364;2023-02-26T00:19:48;6.77;;;2.30;;
69594;SDS011;56800;52.142;5.364;2023-02-26T00:22:15;11.18;;;2.83;;
69594;SDS011;56800;52.142;5.364;2023-02-26T00:24:42;8.23;;;2.22;;
69594;SDS011;56800;52.142;5.364;2023-02-26T00:27:12;8.40;;;2.10;;
69594;SDS011;56800;52.142;5.364;2023-02-26T00:29:39;12.55;;;2.40;;
69594;SDS011;56800;52.142;5.364;2023-02-26T00:32:06;8.00;;;2.00;;
69594;SDS011;56800;52.142;5.364;2023-02-26T00:34:33;8.50;;;2.00;;
69594;SDS011;56800;52.142;5.364;2023-02-26T00:39:42;9.63;;;1.50;;
69594;SDS011;56800;52.142;5.364;2023-02-26T00:42:17;6.65;;;1.20;;
69594;SDS011;56800;52.142;5.364;2023-02-26T00:44:44;4.93;;;1.20;;
69594;SDS011;56800;52.142;5.364;2023-02-26T00:47:24;3.33;;;1.02;;
69594;SDS011;56800;52.142;5.364;2023-02-26T00:50:04;6.40;;;1.33;;
69594;SDS011;56800;52.142;5.364;2023-02-26T00:55:15;4.88;;;1.23;;
69594;SDS011;56800;52.142;5.364;2023-02-26T00:57:41;5.87;;;1.00;;
69594;SDS011;56800;52.142;5.364;2023-02-26T01:00:08;6.13;;;1.05;;
69594;SDS011;56800;52.142;5.364;2023-02-26T01:02:36;7.88;;;1.10;;
69594;SDS011;56800;52.142;5.364;2023-02-26T01:05:04;6.60;;;1.00;;
69594;SDS011;56800;52.142;5.364;2023-02-26T01:07:34;6.20;;;1.27;;
69594;SDS011;56800;52.142;5.364;2023-02-26T01:10:17;6.47;;;0.90;;
69594;SDS011;56800;52.142;5.364;2023-02-26T01:12:44;7.72;;;1.13;;
69594;SDS011;56800;52.142;5.364;2023-02-26T01:15:11;5.65;;;1.30;;
69594;SDS011;56800;52.142;5.364;2023-02-26T01:20:20;10.50;;;1.23;;
69594;SDS011;56800;52.142;5.364;2023-02-26T01:22:54;7.43;;;0.80;;
69594;SDS011;56800;52.142;5.364;2023-02-26T01:25:27;5.30;;;0.90;;
69594;SDS011;56800;52.142;5.364;2023-02-26T01:28:00;7.97;;;1.52;;
69594;SDS011;56800;52.142;5.364;2023-02-26T01:30:27;7.80;;;1.30;;
69594;SDS011;56800;52.142;5.364;2023-02-26T01:35:40;9.07;;;1.80;;
69594;SDS011;56800;52.142;5.364;2023-02-26T01:41:19;8.60;;;1.13;;
69594;SDS011;56800;52.142;5.364;2023-02-26T01:44:09;4.53;;;1.15;;
69594;SDS011;56800;52.142;5.364;2023-02-26T01:49:45;7.97;;;0.97;;
69594;SDS011;56800;52.142;5.364;2023-02-26T01:53:06;6.80;;;1.10;;
69594;SDS011;56800;52.142;5.364;2023-02-26T01:55:15;4.13;;;0.90;;
69594;SDS011;56800;52.142;5.364;2023-02-26T01:57:48;6.43;;;1.05;;
69594;SDS011;56800;52.142;5.364;2023-02-26T02:00:18;5.60;;;1.00;;
69594;SDS011;56800;52.142;5.364;2023-02-26T02:02:45;6.40;;;1.10;;
69594;SDS011;56800;52.142;5.364;2023-02-26T02:05:15;6.20;;;1.08;;
69594;SDS011;56800;52.142;5.364;2023-02-26T02:07:49;7.05;;;1.10;;
69594;SDS011;56800;52.142;5.364;2023-02-26T02:10:16;6.15;;;0.95;;
69594;SDS011;56800;52.142;5.364;2023-02-26T02:12:46;11.02;;;0.90;;
69594;SDS011;56800;52.142;5.364;2023-02-26T02:15:39;5.40;;;1.23;;
69594;SDS011;56800;52.142;5.364;2023-02-26T02:18:23;6.15;;;0.90;;
69594;SDS011;56800;52.142;5.364;2023-02-26T02:24:56;6.20;;;0.90;;
69594;SDS011;56800;52.142;5.364;2023-02-26T02:27:12;4.82;;;1.05;;
69594;SDS011;56800;52.142;5.364;2023-02-26T02:32:35;6.82;;;0.80;;
69594;SDS011;56800;52.142;5.364;2023-02-26T02:40:12;8.43;;;1.00;;
69594;SDS011;56800;52.142;5.364;2023-02-26T02:42:48;3.20;;;1.00;;
69594;SDS011;56800;52.142;5.364;2023-02-26T02:45:25;5.22;;;0.80;;
69594;SDS011;56800;52.142;5.364;2023-02-26T02:48:21;8.60;;;0.95;;
69594;SDS011;56800;52.142;5.364;2023-02-26T02:51:13;5.63;;;1.08;;
69594;SDS011;56800;52.142;5.364;2023-02-26T02:56:48;7.15;;;1.10;;
69594;SDS011;56800;52.142;5.364;2023-02-26T02:59:30;3.13;;;0.80;;
69594;SDS011;56800;52.142;5.364;2023-02-26T03:02:06;4.53;;;0.75;;
69594;SDS011;56800;52.142;5.364;2023-02-26T03:04:53;5.50;;;1.00;;
69594;SDS011;56800;52.142;5.364;2023-02-26T03:07:20;7.83;;;0.80;;
69594;SDS011;56800;52.142;5.364;2023-02-26T03:09:47;5.50;;;0.90;;
69594;SDS011;56800;52.142;5.364;2023-02-26T03:12:14;4.90;;;0.90;;
69594;SDS011;56800;52.142;5.364;2023-02-26T03:14:41;10.27;;;1.33;;
69594;SDS011;56800;52.142;5.364;2023-02-26T03:17:11;1.43;;;0.63;;
69594;SDS011;56800;52.142;5.364;2023-02-26T03:19:48;9.23;;;1.10;;
69594;SDS011;56800;52.142;5.364;2023-02-26T03:25:37;3.72;;;0.80;;
69594;SDS011;56800;52.142;5.364;2023-02-26T03:28:21;6.97;;;0.90;;
69594;SDS011;56800;52.142;5.364;2023-02-26T03:31:03;5.70;;;0.85;;
69594;SDS011;56800;52.142;5.364;2023-02-26T03:33:45;4.25;;;0.95;;
69594;SDS011;56800;52.142;5.364;2023-02-26T03:36:37;6.55;;;0.80;;
69594;SDS011;56800;52.142;5.364;2023-02-26T03:39:09;6.93;;;0.90;;
69594;SDS011;56800;52.142;5.364;2023-02-26T03:41:44;2.92;;;0.88;;
69594;SDS011;56800;52.142;5.364;2023-02-26T03:44:24;4.35;;;0.90;;
69594;SDS011;56800;52.142;5.364;2023-02-26T03:46:56;4.57;;;0.77;;
69594;SDS011;56800;52.142;5.364;2023-02-26T03:49:28;5.30;;;1.08;;
69594;SDS011;56800;52.142;5.364;2023-02-26T03:52:03;2.88;;;0.80;;
69594;SDS011;56800;52.142;5.364;2023-02-26T03:54:41;6.65;;;0.90;;
69594;SDS011;56800;52.142;5.364;2023-02-26T03:57:11;7.53;;;1.20;;
69594;SDS011;56800;52.142;5.364;2023-02-26T03:59:38;4.63;;;0.80;;
69594;SDS011;56800;52.142;5.364;2023-02-26T04:02:15;6.97;;;0.90;;
69594;SDS011;56800;52.142;5.364;2023-02-26T04:04:49;7.18;;;1.17;;
69594;SDS011;56800;52.142;5.364;2023-02-26T04:07:20;3.92;;;0.80;;
69594;SDS011;56800;52.142;5.364;2023-02-26T04:09:48;9.00;;;1.20;;
69594;SDS011;56800;52.142;5.364;2023-02-26T04:12:20;4.53;;;0.73;;
69594;SDS011;56800;52.142;5.364;2023-02-26T04:14:48;4.80;;;0.80;;
69594;SDS011;56800;52.142;5.364;2023-02-26T04:17:15;4.22;;;0.80;;
69594;SDS011;56800;52.142;5.364;2023-02-26T04:19:43;3.70;;;0.93;;
69594;SDS011;56800;52.142;5.364;2023-02-26T04:22:10;6.20;;;0.60;;
69594;SDS011;56800;52.142;5.364;2023-02-26T04:24:37;7.83;;;1.10;;
69594;SDS011;56800;52.142;5.364;2023-02-26T04:27:04;3.63;;;0.80;;
69594;SDS011;56800;52.142;5.364;2023-02-26T04:29:30;5.13;;;0.95;;
69594;SDS011;56800;52.142;5.364;2023-02-26T04:31:57;4.95;;;1.17;;
69594;SDS011;56800;52.142;5.364;2023-02-26T04:34:24;6.93;;;0.70;;
69594;SDS011;56800;52.142;5.364;2023-02-26T04:36:51;6.03;;;0.73;;
69594;SDS011;56800;52.142;5.364;2023-02-26T04:39:18;8.05;;;0.82;;
69594;SDS011;56800;52.142;5.364;2023-02-26T04:41:44;3.45;;;0.80;;
69594;SDS011;56800;52.142;5.364;2023-02-26T04:44:11;4.32;;;0.73;;
69594;SDS011;56800;52.142;5.364;2023-02-26T04:46:38;5.38;;;1.00;;
69594;SDS011;56800;52.142;5.364;2023-02-26T04:49:04;5.50;;;0.90;;
69594;SDS011;56800;52.142;5.364;2023-02-26T04:51:31;7.85;;;0.93;;
69594;SDS011;56800;52.142;5.364;2023-02-26T04:53:58;4.53;;;0.80;;
69594;SDS011;56800;52.142;5.364;2023-02-26T04:56:24;4.78;;;0.70;;
69594;SDS011;56800;52.142;5.364;2023-02-26T04:58:52;4.87;;;0.70;;
69594;SDS011;56800;52.142;5.364;2023-02-26T05:01:18;13.68;;;0.85;;
69594;SDS011;56800;52.142;5.364;2023-02-26T05:03:45;6.80;;;0.85;;
69594;SDS011;56800;52.142;5.364;2023-02-26T05:06:12;2.95;;;0.75;;
69594;SDS011;56800;52.142;5.364;2023-02-26T05:08:39;4.65;;;0.95;;
69594;SDS011;56800;52.142;5.364;2023-02-26T05:11:08;6.10;;;0.70;;
69594;SDS011;56800;52.142;5.364;2023-02-26T05:13:36;3.08;;;0.65;;
69594;SDS011;56800;52.142;5.364;2023-02-26T05:16:03;7.22;;;0.98;;
69594;SDS011;56800;52.142;5.364;2023-02-26T05:18:31;9.45;;;1.40;;
69594;SDS011;56800;52.142;5.364;2023-02-26T05:20:58;2.63;;;0.90;;
69594;SDS011;56800;52.142;5.364;2023-02-26T05:23:25;2.75;;;0.65;;
69594;SDS011;56800;52.142;5.364;2023-02-26T05:25:54;4.00;;;0.65;;
69594;SDS011;56800;52.142;5.364;2023-02-26T05:28:22;3.25;;;0.80;;
69594;SDS011;56800;52.142;5.364;2023-02-26T05:30:50;6.95;;;0.90;;
69594;SDS011;56800;52.142;5.364;2023-02-26T05:33:17;3.80;;;1.02;;
69594;SDS011;56800;52.142;5.364;2023-02-26T05:35:44;3.13;;;0.70;;
69594;SDS011;56800;52.142;5.364;2023-02-26T05:38:11;4.40;;;0.73;;
69594;SDS011;56800;52.142;5.364;2023-02-26T05:40:38;5.75;;;1.17;;
69594;SDS011;56800;52.142;5.364;2023-02-26T05:43:05;3.60;;;0.93;;
69594;SDS011;56800;52.142;5.364;2023-02-26T05:45:31;3.33;;;0.80;;
69594;SDS011;56800;52.142;5.364;2023-02-26T05:47:58;3.22;;;0.80;;
69594;SDS011;56800;52.142;5.364;2023-02-26T05:50:25;5.63;;;0.75;;
69594;SDS011;56800;52.142;5.364;2023-02-26T05:52:52;7.03;;;0.87;;
69594;SDS011;56800;52.142;5.364;2023-02-26T05:55:18;3.33;;;0.75;;
69594;SDS011;56800;52.142;5.364;2023-02-26T05:57:45;4.72;;;0.82;;
69594;SDS011;56800;52.142;5.364;2023-02-26T06:00:12;7.00;;;1.30;;
69594;SDS011;56800;52.142;5.364;2023-02-26T06:02:39;9.05;;;0.88;;
69594;SDS011;56800;52.142;5.364;2023-02-26T06:05:07;3.15;;;0.88;;
69594;SDS011;56800;52.142;5.364;2023-02-26T06:07:34;5.40;;;0.80;;
69594;SDS011;56800;52.142;5.364;2023-02-26T06:10:01;6.20;;;0.70;;
69594;SDS011;56800;52.142;5.364;2023-02-26T06:12:27;2.58;;;0.90;;
69594;SDS011;56800;52.142;5.364;2023-02-26T06:14:54;4.57;;;0.98;;
69594;SDS011;56800;52.142;5.364;2023-02-26T06:17:21;6.53;;;1.00;;
69594;SDS011;56800;52.142;5.364;2023-02-26T06:19:47;5.80;;;0.70;;
69594;SDS011;56800;52.142;5.364;2023-02-26T06:22:14;7.47;;;1.00;;
69594;SDS011;56800;52.142;5.364;2023-02-26T06:24:41;6.68;;;0.68;;
69594;SDS011;56800;52.142;5.364;2023-02-26T06:27:07;2.55;;;0.60;;
69594;SDS011;56800;52.142;5.364;2023-02-26T06:29:34;4.72;;;0.73;;
69594;SDS011;56800;52.142;5.364;2023-02-26T06:32:03;3.90;;;0.70;;
69594;SDS011;56800;52.142;5.364;2023-02-26T06:34:30;5.13;;;0.85;;
69594;SDS011;56800;52.142;5.364;2023-02-26T06:36:57;7.00;;;1.02;;
69594;SDS011;56800;52.142;5.364;2023-02-26T06:39:24;4.82;;;0.60;;
69594;SDS011;56800;52.142;5.364;2023-02-26T06:41:51;4.95;;;0.70;;
69594;SDS011;56800;52.142;5.364;2023-02-26T06:44:17;2.92;;;0.80;;
69594;SDS011;56800;52.142;5.364;2023-02-26T06:46:44;5.07;;;1.30;;
69594;SDS011;56800;52.142;5.364;2023-02-26T06:49:11;4.57;;;0.70;;
69594;SDS011;56800;52.142;5.364;2023-02-26T06:51:37;5.93;;;0.80;;
69594;SDS011;56800;52.142;5.364;2023-02-26T06:54:04;3.95;;;0.60;;
69594;SDS011;56800;52.142;5.364;2023-02-26T06:56:31;10.73;;;0.98;;
69594;SDS011;56800;52.142;5.364;2023-02-26T06:58:57;6.13;;;0.90;;
69594;SDS011;56800;52.142;5.364;2023-02-26T07:01:24;6.90;;;1.10;;
69594;SDS011;56800;52.142;5.364;2023-02-26T07:03:51;4.40;;;0.75;;
69594;SDS011;56800;52.142;5.364;2023-02-26T07:06:17;7.13;;;1.15;;
69594;SDS011;56800;52.142;5.364;2023-02-26T07:08:52;4.20;;;0.98;;
69594;SDS011;56800;52.142;5.364;2023-02-26T07:11:20;4.30;;;0.75;;
69594;SDS011;56800;52.142;5.364;2023-02-26T07:13:47;7.35;;;0.98;;
69594;SDS011;56800;52.142;5.364;2023-02-26T07:16:13;6.35;;;0.90;;
69594;SDS011;56800;52.142;5.364;2023-02-26T07:18:40;2.95;;;0.60;;
69594;SDS011;56800;52.142;5.364;2023-02-26T07:21:07;3.80;;;0.80;;
69594;SDS011;56800;52.142;5.364;2023-02-26T07:23:34;5.45;;;0.82;;
69594;SDS011;56800;52.142;5.364;2023-02-26T07:26:01;6.82;;;0.95;;
69594;SDS011;56800;52.142;5.364;2023-02-26T07:28:27;4.75;;;0.70;;
69594;SDS011;56800;52.142;5.364;2023-02-26T07:30:54;5.73;;;0.90;;
69594;SDS011;56800;52.142;5.364;2023-02-26T07:33:22;5.18;;;0.85;;
69594;SDS011;56800;52.142;5.364;2023-02-26T07:35:50;3.92;;;0.85;;
69594;SDS011;56800;52.142;5.364;2023-02-26T07:38:16;7.22;;;0.98;;
69594;SDS011;56800;52.142;5.364;2023-02-26T07:40:44;5.60;;;1.10;;
69594;SDS011;56800;52.142;5.364;2023-02-26T07:43:12;3.92;;;0.70;;
69594;SDS011;56800;52.142;5.364;2023-02-26T07:45:38;6.50;;;0.95;;
69594;SDS011;56800;52.142;5.364;2023-02-26T07:48:05;4.53;;;1.15;;
69594;SDS011;56800;52.142;5.364;2023-02-26T07:50:32;6.53;;;1.20;;
69594;SDS011;56800;52.142;5.364;2023-02-26T07:52:59;3.53;;;0.90;;
69594;SDS011;56800;52.142;5.364;2023-02-26T07:55:26;2.60;;;0.50;;
69594;SDS011;56800;52.142;5.364;2023-02-26T07:57:53;7.50;;;0.68;;
69594;SDS011;56800;52.142;5.364;2023-02-26T08:00:20;6.32;;;0.70;;
69594;SDS011;56800;52.142;5.364;2023-02-26T08:02:47;5.25;;;1.05;;
69594;SDS011;56800;52.142;5.364;2023-02-26T08:05:13;6.03;;;0.80;;
69594;SDS011;56800;52.142;5.364;2023-02-26T08:07:40;1.88;;;0.55;;
69594;SDS011;56800;52.142;5.364;2023-02-26T08:10:07;6.30;;;0.90;;
69594;SDS011;56800;52.142;5.364;2023-02-26T08:12:34;4.28;;;1.00;;
69594;SDS011;56800;52.142;5.364;2023-02-26T08:15:02;4.57;;;1.20;;
69594;SDS011;56800;52.142;5.364;2023-02-26T08:17:29;5.45;;;0.80;;
69594;SDS011;56800;52.142;5.364;2023-02-26T08:19:56;6.68;;;1.00;;
69594;SDS011;56800;52.142;5.364;2023-02-26T08:22:23;5.90;;;0.90;;
69594;SDS011;56800;52.142;5.364;2023-02-26T08:24:49;2.27;;;0.70;;
69594;SDS011;56800;52.142;5.364;2023-02-26T08:27:16;6.68;;;1.00;;
69594;SDS011;56800;52.142;5.364;2023-02-26T08:29:42;4.22;;;0.75;;
69594;SDS011;56800;52.142;5.364;2023-02-26T08:32:11;5.80;;;1.10;;
69594;SDS011;56800;52.142;5.364;2023-02-26T08:34:38;8.77;;;1.10;;
69594;SDS011;56800;52.142;5.364;2023-02-26T08:37:05;11.13;;;1.20;;
69594;SDS011;56800;52.142;5.364;2023-02-26T08:39:34;9.20;;;1.00;;
69594;SDS011;56800;52.142;5.364;2023-02-26T08:42:04;8.23;;;1.30;;
69594;SDS011;56800;52.142;5.364;2023-02-26T08:44:32;3.58;;;0.80;;
69594;SDS011;56800;52.142;5.364;2023-02-26T08:46:59;4.85;;;0.88;;
69594;SDS011;56800;52.142;5.364;2023-02-26T08:49:26;4.27;;;1.10;;
69594;SDS011;56800;52.142;5.364;2023-02-26T08:51:53;7.13;;;1.10;;
69594;SDS011;56800;52.142;5.364;2023-02-26T08:54:20;6.22;;;1.15;;
69594;SDS011;56800;52.142;5.364;2023-02-26T08:56:46;4.25;;;1.45;;
69594;SDS011;56800;52.142;5.364;2023-02-26T08:59:13;2.85;;;0.80;;
69594;SDS011;56800;52.142;5.364;2023-02-26T09:01:40;6.00;;;1.07;;
69594;SDS011;56800;52.142;5.364;2023-02-26T09:04:07;3.72;;;0.93;;
69594;SDS011;56800;52.142;5.364;2023-02-26T09:06:33;3.65;;;1.20;;
69594;SDS011;56800;52.142;5.364;2023-02-26T09:09:00;2.95;;;1.20;;
69594;SDS011;56800;52.142;5.364;2023-02-26T09:11:26;2.97;;;1.20;;
69594;SDS011;56800;52.142;5.364;2023-02-26T09:13:55;3.03;;;1.03;;
69594;SDS011;56800;52.142;5.364;2023-02-26T09:16:24;3.97;;;1.00;;
69594;SDS011;56800;52.142;5.364;2023-02-26T09:18:52;5.85;;;1.10;;
69594;SDS011;56800;52.142;5.364;2023-02-26T09:21:18;3.83;;;1.30;;
69594;SDS011;56800;52.142;5.364;2023-02-26T09:23:45;2.60;;;0.90;;
69594;SDS011;56800;52.142;5.364;2023-02-26T09:26:12;4.40;;;1.10;;
69594;SDS011;56800;52.142;5.364;2023-02-26T09:28:38;7.35;;;1.30;;
69594;SDS011;56800;52.142;5.364;2023-02-26T09:31:05;5.68;;;1.38;;
69594;SDS011;56800;52.142;5.364;2023-02-26T09:33:32;5.28;;;1.30;;
69594;SDS011;56800;52.142;5.364;2023-02-26T09:35:59;4.40;;;1.23;;
69594;SDS011;56800;52.142;5.364;2023-02-26T09:38:26;3.30;;;1.10;;
69594;SDS011;56800;52.142;5.364;2023-02-26T09:40:55;5.47;;;1.40;;
69594;SDS011;56800;52.142;5.364;2023-02-26T09:43:44;4.57;;;1.13;;
69594;SDS011;56800;52.142;5.364;2023-02-26T09:49:03;2.53;;;0.80;;
69594;SDS011;56800;52.142;5.364;2023-02-26T09:51:41;5.13;;;1.17;;
69594;SDS011;56800;52.142;5.364;2023-02-26T09:54:14;2.88;;;1.20;;
69594;SDS011;56800;52.142;5.364;2023-02-26T09:56:47;3.78;;;1.00;;
69594;SDS011;56800;52.142;5.364;2023-02-26T09:59:16;4.72;;;1.40;;
69594;SDS011;56800;52.142;5.364;2023-02-26T10:04:48;3.53;;;1.33;;
69594;SDS011;56800;52.142;5.364;2023-02-26T10:07:53;3.20;;;1.30;;
69594;SDS011;56800;52.142;5.364;2023-02-26T10:13:16;4.28;;;1.40;;
69594;SDS011;56800;52.142;5.364;2023-02-26T10:16:23;4.57;;;1.55;;
69594;SDS011;56800;52.142;5.364;2023-02-26T10:19:03;2.60;;;1.03;;
69594;SDS011;56800;52.142;5.364;2023-02-26T10:21:35;3.70;;;1.50;;
69594;SDS011;56800;52.142;5.364;2023-02-26T10:24:13;4.70;;;1.33;;
69594;SDS011;56800;52.142;5.364;2023-02-26T10:26:45;3.40;;;1.20;;
69594;SDS011;56800;52.142;5.364;2023-02-26T10:29:37;3.83;;;1.70;;
69594;SDS011;56800;52.142;5.364;2023-02-26T10:34:51;4.85;;;1.50;;
69594;SDS011;56800;52.142;5.364;2023-02-26T10:40:18;4.07;;;1.00;;
69594;SDS011;56800;52.142;5.364;2023-02-26T10:43:10;2.55;;;1.33;;
69594;SDS011;56800;52.142;5.364;2023-02-26T10:51:11;5.53;;;1.23;;
69594;SDS011;56800;52.142;5.364;2023-02-26T10:53:47;3.00;;;1.20;;
69594;SDS011;56800;52.142;5.364;2023-02-26T10:58:58;2.57;;;1.00;;
69594;SDS011;56800;52.142;5.364;2023-02-26T11:01:26;4.40;;;1.20;;
69594;SDS011;56800;52.142;5.364;2023-02-26T11:06:58;2.45;;;1.10;;
69594;SDS011;56800;52.142;5.364;2023-02-26T11:09:37;3.00;;;1.20;;
69594;SDS011;56800;52.142;5.364;2023-02-26T11:12:12;4.87;;;1.30;;
69594;SDS011;56800;52.142;5.364;2023-02-26T11:14:43;4.53;;;1.30;;
69594;SDS011;56800;52.142;5.364;2023-02-26T11:17:16;3.50;;;1.10;;
69594;SDS011;56800;52.142;5.364;2023-02-26T11:19:49;5.75;;;1.40;;
69594;SDS011;56800;52.142;5.364;2023-02-26T11:22:44;2.88;;;1.00;;
69594;SDS011;56800;52.142;5.364;2023-02-26T11:25:16;4.23;;;1.10;;
69594;SDS011;56800;52.142;5.364;2023-02-26T11:27:46;4.63;;;0.98;;
69594;SDS011;56800;52.142;5.364;2023-02-26T11:30:17;3.60;;;0.85;;
69594;SDS011;56800;52.142;5.364;2023-02-26T11:32:49;5.57;;;0.80;;
69594;SDS011;56800;52.142;5.364;2023-02-26T11:35:17;3.40;;;1.30;;
69594;SDS011;56800;52.142;5.364;2023-02-26T11:37:48;2.43;;;0.87;;
69594;SDS011;56800;52.142;5.364;2023-02-26T11:40:37;4.30;;;1.10;;
69594;SDS011;56800;52.142;5.364;2023-02-26T11:43:09;2.72;;;1.00;;
69594;SDS011;56800;52.142;5.364;2023-02-26T11:45:41;2.05;;;0.80;;
69594;SDS011;56800;52.142;5.364;2023-02-26T11:48:12;3.92;;;1.15;;
69594;SDS011;56800;52.142;5.364;2023-02-26T11:50:52;3.47;;;1.20;;
69594;SDS011;56800;52.142;5.364;2023-02-26T11:53:25;3.92;;;1.33;;
69594;SDS011;56800;52.142;5.364;2023-02-26T11:56:19;2.47;;;1.20;;
69594;SDS011;56800;52.142;5.364;2023-02-26T11:58:51;3.70;;;1.15;;
69594;SDS011;56800;52.142;5.364;2023-02-26T12:01:20;3.75;;;1.13;;
69594;SDS011;56800;52.142;5.364;2023-02-26T12:03:54;2.43;;;1.20;;
69594;SDS011;56800;52.142;5.364;2023-02-26T12:06:25;4.20;;;1.23;;
69594;SDS011;56800;52.142;5.364;2023-02-26T12:08:52;4.78;;;1.15;;
69594;SDS011;56800;52.142;5.364;2023-02-26T12:14:35;3.78;;;1.38;;
69594;SDS011;56800;52.142;5.364;2023-02-26T12:17:06;2.53;;;0.90;;
69594;SDS011;56800;52.142;5.364;2023-02-26T12:28:35;3.38;;;1.00;;
69594;SDS011;56800;52.142;5.364;2023-02-26T12:51:23;2.55;;;1.10;;
69594;SDS011;56800;52.142;5.364;2023-02-26T12:57:19;2.85;;;0.90;;
69594;SDS011;56800;52.142;5.364;2023-02-26T13:00:06;3.30;;;1.30;;
69594;SDS011;56800;52.142;5.364;2023-02-26T13:08:28;5.72;;;1.10;;
69594;SDS011;56800;52.142;5.364;2023-02-26T13:16:58;2.72;;;0.95;;
69594;SDS011;56800;52.142;5.364;2023-02-26T13:19:32;1.95;;;0.73;;
69594;SDS011;56800;52.142;5.364;2023-02-26T13:27:40;2.27;;;0.93;;
69594;SDS011;56800;52.142;5.364;2023-02-26T13:32:45;3.58;;;1.27;;
69594;SDS011;56800;52.142;5.364;2023-02-26T13:35:17;3.75;;;1.17;;
69594;SDS011;56800;52.142;5.364;2023-02-26T13:38:48;3.90;;;1.15;;
69594;SDS011;56800;52.142;5.364;2023-02-26T13:44:16;2.45;;;0.95;;
69594;SDS011;56800;52.142;5.364;2023-02-26T13:47:05;1.90;;;0.90;;
69594;SDS011;56800;52.142;5.364;2023-02-26T13:52:52;2.20;;;1.10;;
69594;SDS011;56800;52.142;5.364;2023-02-26T13:55:42;1.83;;;0.90;;
69594;SDS011;56800;52.142;5.364;2023-02-26T14:01:00;2.22;;;0.93;;
69594;SDS011;56800;52.142;5.364;2023-02-26T14:03:35;3.67;;;0.90;;
69594;SDS011;56800;52.142;5.364;2023-02-26T14:08:55;4.17;;;0.83;;
69594;SDS011;56800;52.142;5.364;2023-02-26T14:14:12;3.25;;;1.10;;
69594;SDS011;56800;52.142;5.364;2023-02-26T14:16:43;1.83;;;0.88;;
69594;SDS011;56800;52.142;5.364;2023-02-26T14:19:19;1.90;;;0.90;;
69594;SDS011;56800;52.142;5.364;2023-02-26T14:21:50;2.40;;;0.90;;
69594;SDS011;56800;52.142;5.364;2023-02-26T14:26:49;4.60;;;0.70;;
69594;SDS011;56800;52.142;5.364;2023-02-26T14:29:43;3.63;;;0.80;;
69594;SDS011;56800;52.142;5.364;2023-02-26T14:32:31;3.97;;;0.82;;
69594;SDS011;56800;52.142;5.364;2023-02-26T14:35:09;1.70;;;0.73;;
69594;SDS011;56800;52.142;5.364;2023-02-26T14:37:38;2.88;;;0.90;;
69594;SDS011;56800;52.142;5.364;2023-02-26T14:40:12;2.10;;;0.90;;
69594;SDS011;56800;52.142;5.364;2023-02-26T14:42:55;3.55;;;0.77;;
69594;SDS011;56800;52.142;5.364;2023-02-26T14:45:28;3.70;;;0.90;;
69594;SDS011;56800;52.142;5.364;2023-02-26T14:47:58;2.73;;;1.20;;
69594;SDS011;56800;52.142;5.364;2023-02-26T14:50:37;3.22;;;0.90;;
69594;SDS011;56800;52.142;5.364;2023-02-26T15:04:22;3.22;;;0.60;;
69594;SDS011;56800;52.142;5.364;2023-02-26T15:21:06;2.97;;;0.80;;
69594;SDS011;56800;52.142;5.364;2023-02-26T15:23:55;4.35;;;0.90;;
69594;SDS011;56800;52.142;5.364;2023-02-26T15:26:27;5.45;;;1.02;;
69594;SDS011;56800;52.142;5.364;2023-02-26T15:28:55;3.13;;;1.10;;
69594;SDS011;56800;52.142;5.364;2023-02-26T15:31:28;4.45;;;1.10;;
69594;SDS011;56800;52.142;5.364;2023-02-26T15:33:59;3.25;;;0.80;;
69594;SDS011;56800;52.142;5.364;2023-02-26T15:36:27;3.30;;;0.77;;
69594;SDS011;56800;52.142;5.364;2023-02-26T15:38:56;4.05;;;1.00;;
69594;SDS011;56800;52.142;5.364;2023-02-26T15:41:26;3.93;;;1.00;;
69594;SDS011;56800;52.142;5.364;2023-02-26T15:44:00;3.63;;;1.05;;
69594;SDS011;56800;52.142;5.364;2023-02-26T15:46:31;4.35;;;1.40;;
69594;SDS011;56800;52.142;5.364;2023-02-26T15:49:24;1.98;;;1.00;;
69594;SDS011;56800;52.142;5.364;2023-02-26T15:51:58;2.90;;;1.00;;
69594;SDS011;56800;52.142;5.364;2023-02-26T15:54:32;4.77;;;1.20;;
69594;SDS011;56800;52.142;5.364;2023-02-26T15:57:02;1.75;;;0.73;;
69594;SDS011;56800;52.142;5.364;2023-02-26T15:59:30;3.00;;;0.75;;
69594;SDS011;56800;52.142;5.364;2023-02-26T16:02:00;4.43;;;0.90;;
69594;SDS011;56800;52.142;5.364;2023-02-26T16:04:28;4.15;;;1.02;;
69594;SDS011;56800;52.142;5.364;2023-02-26T16:06:55;6.10;;;1.17;;
69594;SDS011;56800;52.142;5.364;2023-02-26T16:09:27;4.25;;;1.17;;
69594;SDS011;56800;52.142;5.364;2023-02-26T16:11:57;5.50;;;0.88;;
69594;SDS011;56800;52.142;5.364;2023-02-26T16:14:28;3.85;;;1.30;;
69594;SDS011;56800;52.142;5.364;2023-02-26T16:16:59;2.47;;;0.82;;
69594;SDS011;56800;52.142;5.364;2023-02-26T16:22:31;4.53;;;1.20;;
69594;SDS011;56800;52.142;5.364;2023-02-26T16:25:08;2.17;;;0.93;;
69594;SDS011;56800;52.142;5.364;2023-02-26T16:27:41;4.03;;;1.00;;
69594;SDS011;56800;52.142;5.364;2023-02-26T16:30:18;2.83;;;1.00;;
69594;SDS011;56800;52.142;5.364;2023-02-26T16:32:49;3.60;;;1.00;;
69594;SDS011;56800;52.142;5.364;2023-02-26T16:35:20;4.90;;;1.33;;
69594;SDS011;56800;52.142;5.364;2023-02-26T16:37:50;5.53;;;1.35;;
69594;SDS011;56800;52.142;5.364;2023-02-26T16:48:06;2.75;;;1.20;;
69594;SDS011;56800;52.142;5.364;2023-02-26T16:50:39;5.05;;;1.30;;
69594;SDS011;56800;52.142;5.364;2023-02-26T16:53:07;3.42;;;1.23;;
69594;SDS011;56800;52.142;5.364;2023-02-26T16:55:40;6.57;;;1.58;;
69594;SDS011;56800;52.142;5.364;2023-02-26T16:58:13;4.03;;;1.10;;
69594;SDS011;56800;52.142;5.364;2023-02-26T17:00:43;6.78;;;1.20;;
69594;SDS011;56800;52.142;5.364;2023-02-26T17:03:11;5.18;;;1.27;;
69594;SDS011;56800;52.142;5.364;2023-02-26T17:06:04;5.90;;;1.42;;
69594;SDS011;56800;52.142;5.364;2023-02-26T17:08:50;3.13;;;1.17;;
69594;SDS011;56800;52.142;5.364;2023-02-26T17:13:56;5.22;;;1.00;;
69594;SDS011;56800;52.142;5.364;2023-02-26T17:16:49;3.20;;;1.15;;
69594;SDS011;56800;52.142;5.364;2023-02-26T17:19:17;5.50;;;1.23;;
69594;SDS011;56800;52.142;5.364;2023-02-26T17:21:48;3.38;;;1.00;;
69594;SDS011;56800;52.142;5.364;2023-02-26T17:24:23;4.87;;;1.23;;
69594;SDS011;56800;52.142;5.364;2023-02-26T17:26:54;5.22;;;1.10;;
69594;SDS011;56800;52.142;5.364;2023-02-26T17:29:36;8.20;;;1.30;;
69594;SDS011;56800;52.142;5.364;2023-02-26T17:32:04;3.45;;;1.35;;
69594;SDS011;56800;52.142;5.364;2023-02-26T17:34:32;5.55;;;1.30;;
69594;SDS011;56800;52.142;5.364;2023-02-26T17:36:59;6.90;;;1.40;;
69594;SDS011;56800;52.142;5.364;2023-02-26T17:39:30;6.57;;;1.40;;
69594;SDS011;56800;52.142;5.364;2023-02-26T17:41:57;6.32;;;1.30;;
69594;SDS011;56800;52.142;5.364;2023-02-26T17:44:24;5.93;;;1.27;;
69594;SDS011;56800;52.142;5.364;2023-02-26T17:46:51;6.60;;;1.35;;
69594;SDS011;56800;52.142;5.364;2023-02-26T17:49:18;9.03;;;1.20;;
69594;SDS011;56800;52.142;5.364;2023-02-26T17:51:45;4.13;;;1.10;;
69594;SDS011;56800;52.142;5.364;2023-02-26T17:54:11;5.90;;;1.55;;
69594;SDS011;56800;52.142;5.364;2023-02-26T17:56:38;4.95;;;1.00;;
69594;SDS011;56800;52.142;5.364;2023-02-26T17:59:07;5.32;;;1.23;;
69594;SDS011;56800;52.142;5.364;2023-02-26T18:01:36;4.03;;;1.20;;
69594;SDS011;56800;52.142;5.364;2023-02-26T18:04:02;9.15;;;1.30;;
69594;SDS011;56800;52.142;5.364;2023-02-26T18:06:31;10.07;;;1.58;;